createdAt,value
2018-02-14T00:00:20.926Z,90.16
2018-02-14T00:01:20.923Z,90.07
2018-02-14T00:02:20.903Z,90.73
2018-02-14T00:03:20.634Z,91.11
2018-02-14T00:04:20.619Z,90.92
2018-02-14T00:05:20.607Z,91.2
2018-02-14T00:06:20.907Z,91.11
2018-02-14T00:07:20.590Z,92.05
2018-02-14T00:08:20.817Z,91.67
2018-02-14T00:09:20.805Z,91.67
2018-02-14T00:10:20.797Z,92.14
2018-02-14T00:11:20.544Z,91.86
2018-02-14T00:12:20.515Z,91.96
2018-02-14T00:13:20.504Z,92.14
2018-02-14T00:14:20.745Z,92.52
2018-02-14T00:15:20.477Z,92.43
2018-02-14T00:16:20.723Z,91.96
2018-02-14T00:17:20.693Z,91.96
2018-02-14T00:18:20.430Z,91.86
2018-02-14T00:19:20.671Z,92.33
2018-02-14T00:20:20.657Z,92.52
2018-02-14T00:21:20.631Z,92.43
2018-02-14T00:22:21.144Z,92.71
2018-02-14T00:23:20.614Z,92.9
2018-02-14T00:24:20.345Z,93.56
2018-02-14T00:25:20.943Z,93.47
2018-02-14T00:26:20.570Z,92.52
2018-02-14T00:27:20.559Z,92.9
2018-02-14T00:28:20.297Z,92.61
2018-02-14T00:29:20.529Z,92.43
2018-02-14T00:30:20.265Z,92.8
2018-02-14T00:31:20.252Z,92.99
2018-02-14T00:32:20.487Z,92.14
2018-02-14T00:33:20.228Z,92.61
2018-02-14T00:34:20.209Z,92.71
2018-02-14T00:35:20.448Z,92.33
2018-02-14T00:36:20.180Z,91.67
2018-02-14T00:37:20.419Z,91.86
2018-02-14T00:38:20.406Z,91.67
2018-02-14T00:39:20.397Z,92.05
2018-02-14T00:40:20.128Z,93.09
2018-02-14T00:41:20.384Z,93.56
2018-02-14T00:42:20.349Z,93.75
2018-02-14T00:43:20.343Z,93.75
2018-02-14T00:44:20.073Z,93.84
2018-02-14T00:45:20.315Z,94.13
2018-02-14T00:46:20.048Z,93.37
2018-02-14T00:47:20.295Z,92.9
2018-02-14T00:48:20.274Z,92.43
2018-02-14T00:49:23.963Z,93.37
2018-02-14T00:50:19.988Z,93.66
2018-02-14T00:51:19.983Z,93.56
2018-02-14T00:52:20.222Z,93.18
2018-02-14T00:53:19.945Z,93.09
2018-02-14T00:54:19.930Z,93.09
2018-02-14T00:55:20.170Z,93.18
2018-02-14T00:56:20.158Z,94.13
2018-02-14T00:57:19.894Z,93.94
2018-02-14T00:58:19.875Z,93.75
2018-02-14T00:59:19.869Z,93.84
2018-02-14T01:00:19.852Z,93.75
2018-02-14T01:01:19.836Z,93.75
2018-02-14T01:02:19.823Z,94.22
2018-02-14T01:03:20.058Z,94.03
2018-02-14T01:04:19.793Z,93.47
2018-02-14T01:05:19.777Z,93.37
2018-02-14T01:06:20.013Z,93.37
2018-02-14T01:07:20.003Z,93.47
2018-02-14T01:08:19.989Z,93.28
2018-02-14T01:09:19.980Z,93.56
2018-02-14T01:10:19.989Z,93.28
2018-02-14T01:11:19.702Z,93.56
2018-02-14T01:12:19.938Z,94.13
2018-02-14T01:13:19.920Z,94.03
2018-02-14T01:14:19.653Z,94.89
2018-02-14T01:15:19.900Z,94.79
2018-02-14T01:16:19.624Z,95.26
2018-02-14T01:17:19.644Z,94.79
2018-02-14T01:18:19.852Z,94.51
2018-02-14T01:19:19.837Z,94.32
2018-02-14T01:20:19.826Z,94.41
2018-02-14T01:21:19.814Z,94.41
2018-02-14T01:22:19.830Z,93.75
2018-02-14T01:23:20.050Z,94.03
2018-02-14T01:24:19.527Z,93.75
2018-02-14T01:25:19.750Z,93.84
2018-02-14T01:26:19.737Z,93.37
2018-02-14T01:27:19.731Z,93.66
2018-02-14T01:28:19.709Z,92.61
2018-02-14T01:29:19.444Z,92.52
2018-02-14T01:30:19.684Z,93.56
2018-02-14T01:31:19.669Z,93.94
2018-02-14T01:32:19.653Z,93.94
2018-02-14T01:33:19.642Z,93.75
2018-02-14T01:34:19.631Z,94.22
2018-02-14T01:35:19.369Z,93.94
2018-02-14T01:36:19.606Z,94.13
2018-02-14T01:37:19.596Z,94.32
2018-02-14T01:38:19.575Z,95.26
2018-02-14T01:39:19.314Z,94.89
2018-02-14T01:40:19.561Z,94.6
2018-02-14T01:41:19.532Z,94.51
2018-02-14T01:42:19.512Z,94.03
2018-02-14T01:43:19.500Z,94.41
2018-02-14T01:44:19.486Z,94.7
2018-02-14T01:45:19.471Z,94.03
2018-02-14T01:46:19.455Z,93.75
2018-02-14T01:47:19.443Z,93.56
2018-02-14T01:48:19.428Z,93.47
2018-02-14T01:49:19.415Z,93.37
2018-02-14T01:50:19.558Z,93.37
2018-02-14T01:51:19.394Z,93.47
2018-02-14T01:52:19.119Z,93.47
2018-02-14T01:53:19.107Z,93.47
2018-02-14T01:54:19.344Z,93.56
2018-02-14T01:55:19.332Z,93.47
2018-02-14T01:56:19.317Z,93.94
2018-02-14T01:57:19.310Z,93.75
2018-02-14T01:58:19.289Z,94.22
2018-02-14T01:59:19.456Z,94.13
2018-02-14T02:00:19.261Z,95.12
2018-02-14T02:01:19.248Z,95.21
2018-02-14T02:02:19.231Z,95.64
2018-02-14T02:03:19.227Z,95.83
2018-02-14T02:04:19.222Z,96.58
2018-02-14T02:05:19.196Z,95.64
2018-02-14T02:06:18.926Z,95.73
2018-02-14T02:07:18.911Z,96.01
2018-02-14T02:08:57.271Z,95.92
2018-02-14T02:09:18.875Z,95.64
2018-02-14T02:10:18.870Z,96.49
2018-02-14T02:11:19.085Z,96.58
2018-02-14T02:12:19.072Z,96.2
2018-02-14T02:13:19.070Z,96.58
2018-02-14T02:14:18.797Z,95.92
2018-02-14T02:15:19.030Z,96.01
2018-02-14T02:16:19.019Z,95.92
2018-02-14T02:17:19.010Z,96.11
2018-02-14T02:18:19.043Z,95.64
2018-02-14T02:19:18.983Z,95.83
2018-02-14T02:20:18.715Z,95.64
2018-02-14T02:21:18.714Z,95.73
2018-02-14T02:22:18.954Z,94.89
2018-02-14T02:23:18.944Z,94.79
2018-02-14T02:24:18.922Z,94.98
2018-02-14T02:25:18.911Z,95.17
2018-02-14T02:26:18.901Z,95.26
2018-02-14T02:27:18.878Z,94.79
2018-02-14T02:28:18.871Z,95.17
2018-02-14T02:29:18.849Z,94.98
2018-02-14T02:30:18.588Z,94.89
2018-02-14T02:31:18.569Z,95.5
2018-02-14T02:32:18.812Z,95.21
2018-02-14T02:33:18.792Z,95.78
2018-02-14T02:34:18.784Z,95.59
2018-02-14T02:35:18.774Z,96.25
2018-02-14T02:36:18.760Z,95.5
2018-02-14T02:37:18.769Z,95.97
2018-02-14T02:38:18.722Z,96.25
2018-02-14T02:39:18.726Z,96.06
2018-02-14T02:40:18.701Z,96.15
2018-02-14T02:41:18.698Z,96.91
2018-02-14T02:42:18.709Z,96.72
2018-02-14T02:43:18.649Z,96.72
2018-02-14T02:44:18.638Z,96.44
2018-02-14T02:45:18.623Z,96.81
2018-02-14T02:46:18.612Z,96.72
2018-02-14T02:47:18.597Z,97.76
2018-02-14T02:48:18.585Z,97.76
2018-02-14T02:49:18.566Z,97.67
2018-02-14T02:50:18.557Z,97.57
2018-02-14T02:51:18.284Z,97.1
2018-02-14T02:52:18.274Z,96.72
2018-02-14T02:53:18.523Z,97
2018-02-14T02:54:18.241Z,97.85
2018-02-14T02:55:18.484Z,97.85
2018-02-14T02:56:18.473Z,97.95
2018-02-14T02:57:18.522Z,97.95
2018-02-14T02:58:18.434Z,98.04
2018-02-14T02:59:18.174Z,97.95
2018-02-14T03:00:18.158Z,98.14
2018-02-14T03:01:18.394Z,97.95
2018-02-14T03:02:18.381Z,97.95
2018-02-14T03:03:18.371Z,98.14
2018-02-14T03:04:18.099Z,98.23
2018-02-14T03:05:18.477Z,99.08
2018-02-14T03:06:18.324Z,98.8
2018-02-14T03:07:18.306Z,98.52
2018-02-14T03:08:18.294Z,99.37
2018-02-14T03:09:18.032Z,98.9
2018-02-14T03:10:18.371Z,99.37
2018-02-14T03:11:18.255Z,99.65
2018-02-14T03:12:18.236Z,98.47
2018-02-14T03:13:18.219Z,98.66
2018-02-14T03:14:18.208Z,98.19
2018-02-14T03:15:18.114Z,98.04
2018-02-14T03:16:18.179Z,98.47
2018-02-14T03:17:18.170Z,97.72
2018-02-14T03:18:17.901Z,97.34
2018-02-14T03:19:18.138Z,96.91
2018-02-14T03:20:18.218Z,97.38
2018-02-14T03:21:17.852Z,97.85
2018-02-14T03:22:17.842Z,98.14
2018-02-14T03:23:17.828Z,98.33
2018-02-14T03:24:17.809Z,98.23
2018-02-14T03:25:18.361Z,98.61
2018-02-14T03:26:18.051Z,98.99
2018-02-14T03:27:17.767Z,98.99
2018-02-14T03:28:18.006Z,98.9
2018-02-14T03:29:17.737Z,98.9
2018-02-14T03:30:18.037Z,98.71
2018-02-14T03:31:17.971Z,98.71
2018-02-14T03:32:17.950Z,98.38
2018-02-14T03:33:17.683Z,98.47
2018-02-14T03:34:17.683Z,98.23
2018-02-14T03:35:17.999Z,98.19
2018-02-14T03:36:17.649Z,97.72
2018-02-14T03:37:17.639Z,97.76
2018-02-14T03:38:17.870Z,98.14
2018-02-14T03:39:17.597Z,98.57
2018-02-14T03:40:18.092Z,97.76
2018-02-14T03:41:17.817Z,97.76
2018-02-14T03:42:17.556Z,97.85
2018-02-14T03:43:17.534Z,97.48
2018-02-14T03:44:17.776Z,97.57
2018-02-14T03:45:18.017Z,97.76
2018-02-14T03:46:17.748Z,98.04
2018-02-14T03:47:17.731Z,98.33
2018-02-14T03:48:17.467Z,99.08
2018-02-14T03:49:17.452Z,99.18
2018-02-14T03:50:17.739Z,99.65
2018-02-14T03:51:17.672Z,99.65
2018-02-14T03:52:17.659Z,99.55
2018-02-14T03:53:17.640Z,99.65
2018-02-14T03:54:17.633Z,99.99
2018-02-14T03:55:17.424Z,99.99
2018-02-14T03:56:17.598Z,99.99
2018-02-14T03:57:17.582Z,99.93
2018-02-14T03:58:17.567Z,99.74
2018-02-14T03:59:17.558Z,99.46
2018-02-14T04:00:17.697Z,99.99
2018-02-14T04:01:17.531Z,99.46
2018-02-14T04:02:17.508Z,99.55
2018-02-14T04:03:17.498Z,99.84
2018-02-14T04:04:17.480Z,99.27
2018-02-14T04:05:17.869Z,99.55
2018-02-14T04:06:17.452Z,99.46
2018-02-14T04:07:17.492Z,99.46
2018-02-14T04:08:17.424Z,99.18
2018-02-14T04:09:17.424Z,98.99
2018-02-14T04:10:17.951Z,99.74
2018-02-14T04:11:17.381Z,99.65
2018-02-14T04:12:17.378Z,99.74
2018-02-14T04:13:17.360Z,99.99
2018-02-14T04:14:17.087Z,99.99
2018-02-14T04:15:17.575Z,99.99
2018-02-14T04:16:17.054Z,99.99
2018-02-14T04:17:17.048Z,99.74
2018-02-14T04:18:17.027Z,99.99
2018-02-14T04:19:17.012Z,99.74
2018-02-14T04:20:17.667Z,99.99
2018-02-14T04:21:16.989Z,99.99
2018-02-14T04:22:17.217Z,99.99
2018-02-14T04:23:17.210Z,99.99
2018-02-14T04:24:16.940Z,99.99
2018-02-14T04:25:17.491Z,99.99
2018-02-14T04:26:17.163Z,99.99
2018-02-14T04:27:17.144Z,99.99
2018-02-14T04:28:17.132Z,99.99
2018-02-14T04:29:17.116Z,99.99
2018-02-14T04:30:17.094Z,99.99
2018-02-14T04:31:17.086Z,99.99
2018-02-14T04:32:16.824Z,99.99
2018-02-14T04:33:16.806Z,99.99
2018-02-14T04:34:16.790Z,99.99
2018-02-14T04:35:17.624Z,99.99
2018-02-14T04:36:17.015Z,99.99
2018-02-14T04:37:16.743Z,99.99
2018-02-14T04:38:16.983Z,99.99
2018-02-14T04:39:16.976Z,99.99
2018-02-14T04:40:17.003Z,99.99
2018-02-14T04:41:16.686Z,99.99
2018-02-14T04:42:16.681Z,99.99
2018-02-14T04:43:16.657Z,99.99
2018-02-14T04:44:16.898Z,99.99
2018-02-14T04:45:16.960Z,99.99
2018-02-14T04:46:16.867Z,99.99
2018-02-14T04:47:16.850Z,99.99
2018-02-14T04:48:16.837Z,99.99
2018-02-14T04:49:16.578Z,99.99
2018-02-14T04:50:17.018Z,99.99
2018-02-14T04:51:16.794Z,99.99
2018-02-14T04:52:16.778Z,99.99
2018-02-14T04:53:16.510Z,99.99
2018-02-14T04:54:16.746Z,99.99
2018-02-14T04:55:17.281Z,99.99
2018-02-14T04:56:16.464Z,99.99
2018-02-14T04:57:16.450Z,99.99
2018-02-14T04:58:16.448Z,99.99
2018-02-14T04:59:16.673Z,99.99
2018-02-14T05:00:16.963Z,99.99
2018-02-14T05:01:16.643Z,99.99
2018-02-14T05:02:16.375Z,99.99
2018-02-14T05:03:16.611Z,99.99
2018-02-14T05:04:16.596Z,99.99
2018-02-14T05:05:16.781Z,99.99
2018-02-14T05:06:16.568Z,99.99
2018-02-14T05:07:16.560Z,99.99
2018-02-14T05:08:16.552Z,99.99
2018-02-14T05:09:16.527Z,99.99
2018-02-14T05:10:17.262Z,99.99
2018-02-14T05:11:16.494Z,99.99
2018-02-14T05:12:16.485Z,99.99
2018-02-14T05:13:16.475Z,99.99
2018-02-14T05:14:16.451Z,99.99
2018-02-14T05:15:17.134Z,99.99
2018-02-14T05:16:16.424Z,99.99
2018-02-14T05:17:16.158Z,99.99
2018-02-14T05:18:16.396Z,99.99
2018-02-14T05:19:16.378Z,99.99
2018-02-14T05:20:17.244Z,99.99
2018-02-14T05:21:16.094Z,99.99
2018-02-14T05:22:16.345Z,99.99
2018-02-14T05:23:16.065Z,99.99
2018-02-14T05:24:16.306Z,99.99
2018-02-14T05:25:16.361Z,99.99
2018-02-14T05:26:16.290Z,99.99
2018-02-14T05:27:16.268Z,99.99
2018-02-14T05:28:16.242Z,99.99
2018-02-14T05:29:16.229Z,99.99
2018-02-14T05:30:16.767Z,99.99
2018-02-14T05:31:15.947Z,99.99
2018-02-14T05:32:15.940Z,99.99
2018-02-14T05:33:16.168Z,99.99
2018-02-14T05:34:16.164Z,99.99
2018-02-14T05:35:16.962Z,99.99
2018-02-14T05:36:16.124Z,99.99
2018-02-14T05:37:15.858Z,99.99
2018-02-14T05:38:16.097Z,99.99
2018-02-14T05:39:16.081Z,99.99
2018-02-14T05:40:16.896Z,99.99
2018-02-14T05:41:15.813Z,99.99
2018-02-14T05:42:16.036Z,99.99
2018-02-14T05:43:15.778Z,99.99
2018-02-14T05:44:16.010Z,99.99
2018-02-14T05:45:16.251Z,99.99
2018-02-14T05:46:16.016Z,99.99
2018-02-14T05:47:15.966Z,99.99
2018-02-14T05:48:15.952Z,99.99
2018-02-14T05:49:15.939Z,99.99
2018-02-14T05:50:16.640Z,99.99
2018-02-14T05:51:15.653Z,99.99
2018-02-14T05:52:15.890Z,99.99
2018-02-14T05:53:15.908Z,99.99
2018-02-14T05:54:15.610Z,99.99
2018-02-14T05:55:16.079Z,99.99
2018-02-14T05:56:15.839Z,99.99
2018-02-14T05:57:15.830Z,99.99
2018-02-14T05:58:15.811Z,99.99
2018-02-14T05:59:15.789Z,99.99
2018-02-14T06:00:16.532Z,99.99
2018-02-14T06:01:15.764Z,99.99
2018-02-14T06:02:15.759Z,99.99
2018-02-14T06:03:15.754Z,99.99
2018-02-14T06:04:15.720Z,99.99
2018-02-14T06:05:16.394Z,99.99
2018-02-14T06:06:15.703Z,99.99
2018-02-14T06:07:15.680Z,99.99
2018-02-14T06:08:15.405Z,99.99
2018-02-14T06:09:15.695Z,99.99
2018-02-14T06:10:16.291Z,99.99
2018-02-14T06:11:15.611Z,99.99
2018-02-14T06:12:15.345Z,99.99
2018-02-14T06:13:15.584Z,99.99
2018-02-14T06:14:15.568Z,99.99
2018-02-14T06:15:16.446Z,99.99
2018-02-14T06:16:15.549Z,99.99
2018-02-14T06:17:15.274Z,99.99
2018-02-14T06:18:15.508Z,99.99
2018-02-14T06:19:15.494Z,99.99
2018-02-14T06:20:16.417Z,99.99
2018-02-14T06:21:15.475Z,99.99
2018-02-14T06:22:15.452Z,99.99
2018-02-14T06:23:15.436Z,99.99
2018-02-14T06:24:17.324Z,99.99
2018-02-14T06:25:16.094Z,99.99
2018-02-14T06:26:15.393Z,99.99
2018-02-14T06:27:15.382Z,99.99
2018-02-14T06:28:15.360Z,99.99
2018-02-14T06:29:15.099Z,99.99
2018-02-14T06:30:16.013Z,99.99
2018-02-14T06:31:15.331Z,99.99
2018-02-14T06:32:15.051Z,99.99
2018-02-14T06:33:15.037Z,99.99
2018-02-14T06:34:15.031Z,99.99
2018-02-14T06:35:16.222Z,99.99
2018-02-14T06:36:15.247Z,99.99
2018-02-14T06:37:14.978Z,99.99
2018-02-14T06:38:14.968Z,99.99
2018-02-14T06:39:14.956Z,99.99
2018-02-14T06:40:15.730Z,99.99
2018-02-14T06:41:14.920Z,99.99
2018-02-14T06:42:15.157Z,99.99
2018-02-14T06:43:15.154Z,99.99
2018-02-14T06:44:14.880Z,99.99
2018-02-14T06:45:15.731Z,99.99
2018-02-14T06:46:15.109Z,99.99
2018-02-14T06:47:15.085Z,99.99
2018-02-14T06:48:14.822Z,99.99
2018-02-14T06:49:15.061Z,99.99
2018-02-14T06:50:15.633Z,99.99
2018-02-14T06:51:15.036Z,99.99
2018-02-14T06:52:15.015Z,99.99
2018-02-14T06:53:14.996Z,99.99
2018-02-14T06:54:14.733Z,99.99
2018-02-14T06:55:15.819Z,99.99
2018-02-14T06:56:14.954Z,99.99
2018-02-14T06:57:14.688Z,99.99
2018-02-14T06:58:14.933Z,99.99
2018-02-14T06:59:14.659Z,99.99
2018-02-14T07:00:15.670Z,99.99
2018-02-14T07:01:14.894Z,99.99
2018-02-14T07:02:14.883Z,99.99
2018-02-14T07:03:14.866Z,99.99
2018-02-14T07:04:14.841Z,99.99
2018-02-14T07:05:15.945Z,99.99
2018-02-14T07:06:14.824Z,99.99
2018-02-14T07:07:14.795Z,99.99
2018-02-14T07:08:14.783Z,99.99
2018-02-14T07:09:14.773Z,99.99
2018-02-14T07:10:16.201Z,99.99
2018-02-14T07:11:14.743Z,99.99
2018-02-14T07:12:14.738Z,99.99
2018-02-14T07:13:14.459Z,99.99
2018-02-14T07:14:14.697Z,99.99
2018-02-14T07:15:16.381Z,99.99
2018-02-14T07:16:14.671Z,99.99
2018-02-14T07:17:14.421Z,99.99
2018-02-14T07:18:14.646Z,99.98
2018-02-14T07:19:14.633Z,99.99
2018-02-14T07:20:16.259Z,99.98
2018-02-14T07:21:14.605Z,99.88
2018-02-14T07:22:14.597Z,99.99
2018-02-14T07:23:14.574Z,99.7
2018-02-14T07:24:14.557Z,99.88
2018-02-14T07:25:16.947Z,99.98
2018-02-14T07:26:14.295Z,99.88
2018-02-14T07:27:14.517Z,99.99
2018-02-14T07:28:14.506Z,99.99
2018-02-14T07:29:14.489Z,99.99
2018-02-14T07:30:15.580Z,99.99
2018-02-14T07:31:14.212Z,98.19
2018-02-14T07:32:14.449Z,94.18
2018-02-14T07:33:14.440Z,89.92
2018-02-14T07:34:14.428Z,86.47
2018-02-14T07:35:15.172Z,84.1
2018-02-14T07:36:14.404Z,80.83
2018-02-14T07:37:14.394Z,77.42
2018-02-14T07:38:14.384Z,75.38
2018-02-14T07:39:14.119Z,74.52
2018-02-14T07:40:15.503Z,73.3
2018-02-14T07:41:14.362Z,72.38
2018-02-14T07:42:14.089Z,70.58
2018-02-14T07:43:14.080Z,69.54
2018-02-14T07:44:14.323Z,68.5
2018-02-14T07:45:15.229Z,67.58
2018-02-14T07:46:14.307Z,66.93
2018-02-14T07:47:14.305Z,65.78
2018-02-14T07:48:14.291Z,64.87
2018-02-14T07:49:14.033Z,63.92
2018-02-14T07:50:14.974Z,63.17
2018-02-14T07:51:14.272Z,63.35
2018-02-14T07:52:14.277Z,62.85
2018-02-14T07:53:14.037Z,63.42
2018-02-14T07:54:14.244Z,63.13
2018-02-14T07:55:14.690Z,64.55
2018-02-14T07:56:14.231Z,65.66
2018-02-14T07:57:13.971Z,67.46
2018-02-14T07:58:13.962Z,68.27
2018-02-14T07:59:14.210Z,69.41
2018-02-14T08:00:15.424Z,70.07
2018-02-14T08:01:13.954Z,70.07
2018-02-14T08:02:13.941Z,70.17
2018-02-14T08:03:14.180Z,70.51
2018-02-14T08:04:14.172Z,72.41
2018-02-14T08:05:15.393Z,74.68
2018-02-14T08:06:13.900Z,76.63
2018-02-14T08:07:13.891Z,77.95
2018-02-14T08:08:14.136Z,79.99
2018-02-14T08:09:14.199Z,81.51
2018-02-14T08:10:14.850Z,82.64
2018-02-14T08:11:14.110Z,83.87
2018-02-14T08:12:14.103Z,84.25
2018-02-14T08:13:14.086Z,85
2018-02-14T08:14:13.829Z,85.47
2018-02-14T08:15:14.771Z,85.57
2018-02-14T08:16:14.054Z,86.71
2018-02-14T08:17:13.799Z,86.23
2018-02-14T08:18:14.037Z,84.81
2018-02-14T08:19:14.030Z,83.25
2018-02-14T08:20:14.575Z,79.6
2018-02-14T08:21:13.768Z,77.61
2018-02-14T08:22:14.005Z,74.71
2018-02-14T08:23:14.053Z,71.62
2018-02-14T08:24:13.733Z,70.68
2018-02-14T08:25:15.025Z,67.4
2018-02-14T08:26:15.025Z,67.02
2018-02-14T08:27:13.702Z,67.21
2018-02-14T08:28:13.692Z,65.97
2018-02-14T08:29:13.942Z,64.97
2018-02-14T08:30:14.883Z,63.17
2018-02-14T08:31:13.926Z,63.54
2018-02-14T08:32:13.924Z,62.5
2018-02-14T08:33:13.914Z,61.83
2018-02-14T08:34:13.906Z,62.02
2018-02-14T08:35:15.041Z,61.11
2018-02-14T08:36:13.894Z,61.01
2018-02-14T08:37:13.639Z,60.73
2018-02-14T08:38:13.881Z,60.98
2018-02-14T08:39:13.876Z,62.12
2018-02-14T08:40:14.967Z,64.74
2018-02-14T08:41:13.664Z,66.41
2018-02-14T08:42:13.859Z,66.7
2018-02-14T08:43:13.860Z,68.75
2018-02-14T08:44:13.865Z,70.89
2018-02-14T08:45:14.572Z,72.31
2018-02-14T08:46:13.849Z,73.83
2018-02-14T08:47:13.848Z,74.58
2018-02-14T08:48:13.574Z,75.4
2018-02-14T08:49:13.572Z,76.25
2018-02-14T08:50:15.108Z,77.58
2018-02-14T08:51:13.566Z,78.14
2018-02-14T08:52:13.821Z,79.18
2018-02-14T08:53:13.790Z,79.37
2018-02-14T08:54:13.532Z,80.13
2018-02-14T08:55:14.828Z,80.6
2018-02-14T08:56:17.018Z,80.08
2018-02-14T08:57:13.764Z,80.18
2018-02-14T08:58:13.763Z,80.94
2018-02-14T08:59:13.758Z,80.75
2018-02-14T09:00:14.496Z,80.94
2018-02-14T09:01:13.723Z,81.51
2018-02-14T09:02:13.461Z,81.98
2018-02-14T09:03:13.700Z,81.98
2018-02-14T09:04:13.704Z,82.17
2018-02-14T09:05:15.016Z,81.93
2018-02-14T09:06:13.673Z,81.45
2018-02-14T09:07:13.663Z,80.98
2018-02-14T09:08:13.654Z,80.51
2018-02-14T09:09:13.391Z,80.22
2018-02-14T09:10:14.721Z,80.69
2018-02-14T09:11:13.380Z,80.32
2018-02-14T09:12:13.615Z,80.46
2018-02-14T09:13:13.359Z,80.56
2018-02-14T09:14:13.342Z,81.26
2018-02-14T09:15:14.706Z,80.41
2018-02-14T09:16:13.571Z,80.51
2018-02-14T09:17:13.561Z,80.69
2018-02-14T09:18:13.560Z,80.41
2018-02-14T09:19:13.542Z,79.85
2018-02-14T09:20:14.112Z,79.66
2018-02-14T09:21:13.521Z,79.9
2018-02-14T09:22:13.510Z,80.56
2018-02-14T09:23:13.501Z,80.98
2018-02-14T09:24:13.243Z,81.36
2018-02-14T09:25:14.328Z,80.79
2018-02-14T09:26:13.213Z,81.17
2018-02-14T09:27:13.204Z,81.36
2018-02-14T09:28:13.201Z,81.74
2018-02-14T09:29:13.446Z,81.26
2018-02-14T09:30:14.184Z,81.17
2018-02-14T09:31:13.178Z,80.69
2018-02-14T09:32:13.404Z,80.32
2018-02-14T09:33:13.141Z,80.13
2018-02-14T09:34:13.136Z,79.56
2018-02-14T09:35:14.094Z,79.37
2018-02-14T09:36:13.359Z,79.09
2018-02-14T09:37:13.349Z,79.75
2018-02-14T09:38:13.088Z,80.6
2018-02-14T09:39:13.330Z,80.69
2018-02-14T09:40:14.526Z,80.51
2018-02-14T09:41:13.059Z,80.32
2018-02-14T09:42:13.346Z,79.85
2018-02-14T09:43:13.290Z,79.28
2018-02-14T09:44:13.281Z,79.56
2018-02-14T09:45:14.038Z,79.37
2018-02-14T09:46:13.256Z,79.66
2018-02-14T09:47:13.249Z,78.52
2018-02-14T09:48:12.988Z,78.52
2018-02-14T09:49:13.223Z,78.71
2018-02-14T09:50:14.013Z,78.9
2018-02-14T09:51:12.953Z,78.9
2018-02-14T09:52:13.191Z,78.52
2018-02-14T09:53:12.933Z,78.71
2018-02-14T09:54:13.174Z,79.28
2018-02-14T09:55:14.330Z,78.9
2018-02-14T09:56:13.155Z,78.9
2018-02-14T09:57:15.193Z,77.7
2018-02-14T09:58:13.130Z,77.14
2018-02-14T09:59:13.120Z,76.95
2018-02-14T10:00:14.207Z,77.7
2018-02-14T10:01:12.849Z,77.23
2018-02-14T10:02:13.097Z,76.86
2018-02-14T10:03:13.089Z,77.04
2018-02-14T10:04:13.069Z,76.38
2018-02-14T10:05:13.567Z,76.1
2018-02-14T10:06:12.798Z,75.81
2018-02-14T10:07:12.841Z,75.24
2018-02-14T10:08:13.034Z,75.62
2018-02-14T10:09:13.016Z,75.05
2018-02-14T10:10:13.478Z,74.87
2018-02-14T10:11:12.765Z,74.96
2018-02-14T10:12:12.784Z,76.38
2018-02-14T10:13:12.976Z,75.43
2018-02-14T10:14:12.967Z,74.58
2018-02-14T10:15:13.830Z,74.68
2018-02-14T10:16:12.695Z,74.58
2018-02-14T10:17:12.935Z,74.77
2018-02-14T10:18:12.676Z,74.68
2018-02-14T10:19:12.667Z,75.15
2018-02-14T10:20:13.187Z,75.43
2018-02-14T10:21:12.903Z,75.72
2018-02-14T10:22:12.657Z,75.05
2018-02-14T10:23:12.927Z,75.72
2018-02-14T10:24:12.866Z,75.43
2018-02-14T10:54:13.289Z,72.92
2018-02-14T10:55:13.869Z,72.44
2018-02-14T10:56:13.217Z,71.88
2018-02-14T10:57:12.939Z,72.25
2018-02-14T10:58:13.191Z,72.53
2018-02-14T10:59:13.163Z,72.25
2018-02-14T11:00:13.814Z,72.44
2018-02-14T11:01:12.896Z,71.97
2018-02-14T11:02:13.146Z,71.31
2018-02-14T11:03:12.862Z,71.12
2018-02-14T11:04:12.850Z,71.97
2018-02-14T11:05:14.142Z,72.16
2018-02-14T11:06:12.828Z,71.5
2018-02-14T11:07:13.070Z,71.02
2018-02-14T11:08:13.064Z,70.36
2018-02-14T11:09:17.746Z,70.55
2018-02-14T11:10:14.055Z,70.55
2018-02-14T11:11:13.033Z,70.64
2018-02-14T11:12:13.023Z,70.74
2018-02-14T11:13:12.752Z,70.93
2018-02-14T11:14:12.745Z,70.83
2018-02-14T11:15:13.890Z,70.83
2018-02-14T11:16:12.722Z,70.74
2018-02-14T11:17:12.712Z,71.12
2018-02-14T11:18:12.704Z,70.36
2018-02-14T11:19:12.944Z,70.36
2018-02-14T11:20:14.156Z,70.83
2018-02-14T11:21:12.672Z,70.64
2018-02-14T11:22:12.673Z,70.64
2018-02-14T11:23:12.905Z,70.55
2018-02-14T11:24:12.897Z,70.83
2018-02-14T11:25:13.624Z,70.83
2018-02-14T11:26:12.916Z,70.64
2018-02-14T11:27:12.874Z,70.83
2018-02-14T11:28:12.860Z,70.45
2018-02-14T11:29:12.849Z,71.31
2018-02-14T11:30:13.937Z,70.07
2018-02-14T11:31:12.578Z,70.93
2018-02-14T11:32:12.822Z,70.74
2018-02-14T11:33:12.810Z,70.83
2018-02-14T11:34:12.802Z,70.45
2018-02-14T11:35:14.304Z,70.93
2018-02-14T11:36:12.787Z,70.74
2018-02-14T11:37:12.523Z,70.45
2018-02-14T11:38:12.510Z,69.89
2018-02-14T11:39:12.759Z,70.17
2018-02-14T11:40:18.354Z,70.07
2018-02-14T11:41:12.740Z,69.79
2018-02-14T11:42:12.478Z,70.83
2018-02-14T11:43:12.474Z,70.58
2018-02-14T11:44:12.711Z,70.58
2018-02-14T11:45:13.752Z,70.55
2018-02-14T11:46:12.685Z,70.07
2018-02-14T11:47:12.435Z,70.3
2018-02-14T11:48:12.426Z,70.55
2018-02-14T11:49:12.676Z,70.49
2018-02-14T11:50:13.841Z,71.06
2018-02-14T11:51:12.642Z,70.2
2018-02-14T11:52:12.383Z,69.64
2018-02-14T11:53:12.624Z,68.88
2018-02-14T11:54:12.613Z,68.98
2018-02-14T11:55:13.592Z,68.02
2018-02-14T11:56:12.366Z,67.93
2018-02-14T11:57:12.361Z,67.74
2018-02-14T11:58:12.339Z,67.46
2018-02-14T11:59:12.570Z,67.18
2018-02-14T12:00:13.598Z,67.36
2018-02-14T12:01:12.308Z,66.89
2018-02-14T12:02:12.543Z,66.8
2018-02-14T12:03:12.538Z,67.08
2018-02-14T12:04:12.521Z,67.46
2018-02-14T12:05:13.200Z,67.65
2018-02-14T12:06:12.511Z,67.74
2018-02-14T12:07:12.495Z,67.65
2018-02-14T12:08:12.492Z,67.65
2018-02-14T12:09:12.480Z,67.18
2018-02-14T12:10:13.377Z,66.99
2018-02-14T12:11:12.462Z,67.27
2018-02-14T12:12:12.503Z,66.89
2018-02-14T12:13:12.202Z,66.99
2018-02-14T12:14:12.182Z,66.6
2018-02-14T12:15:13.235Z,67.36
2018-02-14T12:16:12.422Z,67.18
2018-02-14T12:17:12.160Z,66.99
2018-02-14T12:18:12.152Z,66.7
2018-02-14T12:19:12.421Z,67.08
2018-02-14T12:20:13.390Z,66.99
2018-02-14T12:21:12.121Z,66.89
2018-02-14T12:22:12.373Z,66.8
2018-02-14T12:23:12.372Z,66.89
2018-02-14T12:24:12.092Z,66.6
2018-02-14T12:25:12.890Z,67.08
2018-02-14T12:26:13.339Z,66.51
2018-02-14T12:27:12.335Z,66.41
2018-02-14T12:28:12.321Z,65.84
2018-02-14T12:29:12.322Z,64.81
2018-02-14T12:30:12.664Z,64.52
2018-02-14T12:31:12.320Z,64.42
2018-02-14T12:32:12.284Z,65.19
2018-02-14T12:33:12.018Z,64.93
2018-02-14T12:34:12.008Z,64.61
2018-02-14T12:35:12.936Z,64.55
2018-02-14T12:36:12.312Z,64.17
2018-02-14T12:37:11.986Z,63.51
2018-02-14T12:38:11.981Z,64.36
2018-02-14T12:39:12.221Z,63.04
2018-02-14T12:40:13.173Z,63.48
2018-02-14T12:41:14.902Z,63.6
2018-02-14T12:42:12.749Z,63.98
2018-02-14T12:43:12.180Z,63.89
2018-02-14T12:44:12.186Z,63.51
2018-02-14T12:45:13.112Z,62.85
2018-02-14T12:46:11.906Z,62.66
2018-02-14T12:47:11.894Z,62.85
2018-02-14T12:48:12.145Z,63.04
2018-02-14T12:49:12.127Z,62.47
2018-02-14T12:50:13.119Z,62.66
2018-02-14T12:51:11.863Z,62.47
2018-02-14T12:52:12.105Z,62.56
2018-02-14T12:53:12.098Z,62.66
2018-02-14T12:54:12.087Z,62.47
2018-02-14T12:55:12.770Z,62.08
2018-02-14T12:56:12.071Z,61.52
2018-02-14T12:57:12.064Z,61.61
2018-02-14T12:58:12.054Z,61.9
2018-02-14T12:59:12.047Z,61.52
2018-02-14T13:00:12.460Z,61.52
2018-02-14T13:01:12.033Z,62.08
2018-02-14T13:02:11.774Z,61.61
2018-02-14T13:03:11.761Z,61.8
2018-02-14T13:04:11.754Z,62.08
2018-02-14T13:05:12.622Z,62.37
2018-02-14T13:06:11.988Z,62.08
2018-02-14T13:07:11.984Z,61.24
2018-02-14T13:08:11.973Z,60.19
2018-02-14T13:09:11.969Z,60.67
2018-02-14T13:10:12.540Z,61.24
2018-02-14T13:11:11.964Z,60.95
2018-02-14T13:12:11.954Z,61.24
2018-02-14T13:13:11.931Z,61.8
2018-02-14T13:14:11.677Z,61.33
2018-02-14T13:15:12.685Z,60.76
2018-02-14T13:16:11.654Z,60.19
2018-02-14T13:17:11.649Z,60.95
2018-02-14T13:18:11.901Z,61.05
2018-02-14T13:19:11.666Z,60.86
2018-02-14T13:20:13.159Z,60.67
2018-02-14T13:21:11.613Z,60.28
2018-02-14T13:22:11.854Z,59.63
2018-02-14T13:23:11.597Z,59.53